createdAt,value
2022-08-14T00:02:09.187Z,9.48
2022-08-14T00:05:15.064Z,9.65
2022-08-14T00:08:44.762Z,9.15
2022-08-14T00:11:43.549Z,9.90
2022-08-14T00:14:47.121Z,9.65
2022-08-14T00:17:59.346Z,9.60
2022-08-14T00:21:03.114Z,9.40
2022-08-14T00:24:09.654Z,9.40
2022-08-14T00:27:14.473Z,8.82
2022-08-14T00:30:20.813Z,9.85
2022-08-14T00:33:24.211Z,9.70
2022-08-14T00:36:49.790Z,10.40
2022-08-14T00:39:53.434Z,9.80
2022-08-14T00:42:58.187Z,9.40
2022-08-14T00:46:05.284Z,10.70
2022-08-14T00:49:14.777Z,9.77
2022-08-14T00:52:19.144Z,9.55
2022-08-14T00:55:23.337Z,10.13
2022-08-14T00:58:35.185Z,9.73
2022-08-14T01:01:39.852Z,9.73
2022-08-14T01:04:54.408Z,9.23
2022-08-14T01:07:58.628Z,9.02
2022-08-14T01:11:02.717Z,8.07
2022-08-14T01:14:25.699Z,8.75
2022-08-14T01:17:49.823Z,8.75
2022-08-14T01:21:13.263Z,9.52
2022-08-14T01:24:22.995Z,9.15
2022-08-14T01:27:53.479Z,9.43
2022-08-14T01:31:00.083Z,10.23
2022-08-14T01:35:17.492Z,9.65
2022-08-14T01:37:31.482Z,10.75
2022-08-14T01:40:41.929Z,9.55
2022-08-14T01:43:56.714Z,10.23
2022-08-14T01:47:02.040Z,10.50
2022-08-14T01:50:11.368Z,10.27
2022-08-14T01:53:17.850Z,10.73
2022-08-14T01:56:37.168Z,10.38
2022-08-14T01:59:44.676Z,10.00
2022-08-14T02:02:48.226Z,10.40
2022-08-14T02:06:03.906Z,10.80
2022-08-14T02:09:23.226Z,10.43
2022-08-14T02:12:31.053Z,10.45
2022-08-14T02:15:35.437Z,10.98
2022-08-14T02:18:40.043Z,11.75
2022-08-14T02:21:48.732Z,10.80
2022-08-14T02:24:52.555Z,10.55
2022-08-14T02:28:22.971Z,11.20
2022-08-14T02:31:28.366Z,10.02
2022-08-14T02:34:36.319Z,10.32
2022-08-14T02:37:47.665Z,11.10
2022-08-14T02:40:52.055Z,10.80
2022-08-14T02:44:00.787Z,10.82
2022-08-14T02:47:07.150Z,10.88
2022-08-14T02:50:18.159Z,11.70
2022-08-14T02:53:21.454Z,11.07
2022-08-14T02:56:29.949Z,11.55
2022-08-14T02:59:51.498Z,10.98
2022-08-14T03:02:58.488Z,11.18
2022-08-14T03:06:03.067Z,11.52
2022-08-14T03:09:06.944Z,11.25
2022-08-14T03:12:12.649Z,11.50
2022-08-14T03:15:22.819Z,11.10
2022-08-14T03:18:31.598Z,11.70
2022-08-14T03:21:39.728Z,11.13
2022-08-14T03:24:44.042Z,11.73
2022-08-14T03:27:48.288Z,11.75
2022-08-14T03:31:04.431Z,10.77
2022-08-14T03:34:24.682Z,11.82
2022-08-14T03:37:52.003Z,10.85
2022-08-14T03:40:59.749Z,11.43
2022-08-14T03:45:25.403Z,11.65
2022-08-14T03:47:46.153Z,11.52
2022-08-14T03:50:52.814Z,11.85
2022-08-14T03:54:04.949Z,12.00
2022-08-14T03:57:08.825Z,11.55
2022-08-14T04:00:40.429Z,11.73
2022-08-14T04:03:39.352Z,12.90
2022-08-14T04:06:47.551Z,12.13
2022-08-14T04:09:52.767Z,13.23
2022-08-14T04:13:03.509Z,13.23
2022-08-14T04:16:12.490Z,13.23
2022-08-14T04:19:19.991Z,12.32
2022-08-14T04:22:23.853Z,13.05
2022-08-14T04:25:27.413Z,14.18
2022-08-14T04:29:06.834Z,13.73
2022-08-14T04:32:58.456Z,14.65
2022-08-14T04:35:19.000Z,15.55
2022-08-14T04:38:47.115Z,14.10
2022-08-14T04:42:11.880Z,14.35
2022-08-14T04:45:17.684Z,13.98
2022-08-14T04:48:31.638Z,14.52
2022-08-14T04:52:04.253Z,13.52
2022-08-14T04:55:19.103Z,13.80
2022-08-14T04:58:32.790Z,13.80
2022-08-14T05:01:40.016Z,12.60
2022-08-14T05:04:45.132Z,13.43
2022-08-14T05:08:01.298Z,13.02
2022-08-14T05:11:07.179Z,12.50
2022-08-14T05:14:45.432Z,12.27
2022-08-14T05:17:58.531Z,13.15
2022-08-14T05:21:59.697Z,12.50
2022-08-14T05:24:33.848Z,12.52
2022-08-14T05:27:37.115Z,11.88
2022-08-14T05:30:43.828Z,11.73
2022-08-14T05:33:56.552Z,12.30
2022-08-14T05:37:02.321Z,12.45
2022-08-14T05:40:10.325Z,12.00
2022-08-14T05:43:16.511Z,10.93
2022-08-14T05:46:22.993Z,11.23
2022-08-14T05:49:33.288Z,11.80
2022-08-14T05:52:39.213Z,11.40
2022-08-14T05:55:44.945Z,11.90
2022-08-14T05:58:48.376Z,11.98
2022-08-14T06:01:51.690Z,12.43
2022-08-14T06:04:55.280Z,11.90
2022-08-14T06:08:02.928Z,11.70
2022-08-14T06:11:14.888Z,10.82
2022-08-14T06:14:31.366Z,11.43
2022-08-14T06:17:47.044Z,11.65
2022-08-14T06:20:59.331Z,10.80
2022-08-14T06:24:02.661Z,10.43
2022-08-14T06:27:09.820Z,11.30
2022-08-14T06:30:16.255Z,11.55
2022-08-14T06:33:20.827Z,11.50
2022-08-14T06:36:26.029Z,11.77
2022-08-14T06:39:36.294Z,11.65
2022-08-14T06:42:43.269Z,12.38
2022-08-14T06:45:53.893Z,11.95
2022-08-14T06:48:57.954Z,11.45
2022-08-14T06:52:01.772Z,11.77
2022-08-14T06:55:05.887Z,12.60
2022-08-14T06:58:28.725Z,12.35
2022-08-14T07:01:51.918Z,11.77
2022-08-14T07:05:22.811Z,10.68
2022-08-14T07:08:31.612Z,12.32
2022-08-14T07:11:35.216Z,11.40
2022-08-14T07:14:40.027Z,11.90
2022-08-14T07:17:52.141Z,12.48
2022-08-14T07:20:56.767Z,12.27
2022-08-14T07:24:00.217Z,11.75
2022-08-14T07:27:04.183Z,11.85
2022-08-14T07:30:34.011Z,12.35
2022-08-14T07:33:37.538Z,11.55
2022-08-14T07:36:53.649Z,12.20
2022-08-14T07:40:06.391Z,11.27
2022-08-14T07:43:14.399Z,10.93
2022-08-14T07:46:21.174Z,10.80
2022-08-14T07:49:30.882Z,11.13
2022-08-14T07:52:34.258Z,11.40
2022-08-14T07:55:37.599Z,11.55
2022-08-14T07:58:51.719Z,11.48
2022-08-14T08:01:58.657Z,10.68
2022-08-14T08:05:02.714Z,11.55
2022-08-14T08:08:08.455Z,11.43
2022-08-14T08:11:36.983Z,11.18
2022-08-14T08:14:56.873Z,12.20
2022-08-14T08:18:10.245Z,12.35
2022-08-14T08:21:33.353Z,11.45
2022-08-14T08:24:38.853Z,11.80
2022-08-14T08:27:44.810Z,10.82
2022-08-14T08:30:51.410Z,11.23
2022-08-14T08:33:58.025Z,10.85
2022-08-14T08:37:07.078Z,11.57
2022-08-14T08:40:11.939Z,12.50
2022-08-14T08:43:25.893Z,12.68
2022-08-14T08:46:29.434Z,13.50
2022-08-14T08:49:53.010Z,12.65
2022-08-14T08:53:05.223Z,13.40
2022-08-14T08:56:08.759Z,13.32
2022-08-14T08:59:21.965Z,12.65
2022-08-14T09:02:25.966Z,12.25
2022-08-14T09:05:33.554Z,10.90
2022-08-14T09:08:37.923Z,10.27
2022-08-14T09:11:41.310Z,10.07
2022-08-14T09:14:44.823Z,10.02
2022-08-14T09:17:48.612Z,9.60
2022-08-14T09:20:58.770Z,9.90
2022-08-14T09:24:29.478Z,9.55
2022-08-14T09:27:26.379Z,9.77
2022-08-14T09:30:32.049Z,9.88
2022-08-14T09:33:56.374Z,10.52
2022-08-14T09:37:18.996Z,9.73
2022-08-14T09:40:37.264Z,10.32
2022-08-14T09:43:53.593Z,10.48
2022-08-14T09:46:58.879Z,10.68
2022-08-14T09:50:02.226Z,12.73
2022-08-14T09:53:17.974Z,12.65
2022-08-14T09:56:30.250Z,13.60
2022-08-14T09:59:42.224Z,13.52
2022-08-14T10:02:54.470Z,13.10
2022-08-14T10:06:07.474Z,12.02
2022-08-14T10:09:16.831Z,12.23
2022-08-14T10:12:29.141Z,12.18
2022-08-14T10:15:34.731Z,13.48
2022-08-14T10:18:39.875Z,13.15
2022-08-14T10:23:11.189Z,14.05
2022-08-14T10:25:15.593Z,14.05
2022-08-14T10:28:51.638Z,14.82
2022-08-14T10:31:45.743Z,15.40
2022-08-14T10:34:52.735Z,15.23
2022-08-14T10:37:56.991Z,15.82
2022-08-14T10:41:13.966Z,15.00
2022-08-14T10:44:21.666Z,14.88
2022-08-14T10:48:07.499Z,13.52
2022-08-14T10:51:00.501Z,14.10
2022-08-14T10:54:16.908Z,13.90
2022-08-14T10:57:35.671Z,12.63
2022-08-14T11:00:43.530Z,15.68
2022-08-14T11:03:56.399Z,15.23
2022-08-14T11:07:00.551Z,15.30
2022-08-14T11:10:09.564Z,15.27
2022-08-14T11:13:23.874Z,15.98
2022-08-14T11:16:29.566Z,15.30
2022-08-14T11:19:33.903Z,14.73
2022-08-14T11:22:56.055Z,14.30
2022-08-14T11:26:02.382Z,13.68
2022-08-14T11:29:12.632Z,13.20
2022-08-14T11:32:20.227Z,14.02
2022-08-14T11:35:26.612Z,13.75
2022-08-14T11:38:48.184Z,14.05
2022-08-14T11:41:55.659Z,13.23
2022-08-14T11:45:11.006Z,14.07
2022-08-14T11:49:04.126Z,13.73
2022-08-14T11:51:42.975Z,12.98
2022-08-14T11:55:00.646Z,13.20
2022-08-14T11:58:06.431Z,11.30
2022-08-14T12:01:11.402Z,11.73
2022-08-14T12:04:21.705Z,11.75
2022-08-14T12:07:36.940Z,11.13
2022-08-14T12:10:58.878Z,11.40
2022-08-14T12:14:13.396Z,12.23
2022-08-14T12:17:47.749Z,13.52
2022-08-14T12:20:54.514Z,13.60
2022-08-14T12:24:06.146Z,12.60
2022-08-14T12:27:13.227Z,12.55
2022-08-14T12:30:29.169Z,14.25
2022-08-14T12:33:47.060Z,14.45
2022-08-14T12:37:06.068Z,13.52
2022-08-14T12:40:15.509Z,13.60
2022-08-14T12:43:21.604Z,13.90
2022-08-14T12:46:28.636Z,14.15
2022-08-14T12:49:34.393Z,14.57
2022-08-14T12:52:53.951Z,14.32
2022-08-14T12:56:22.647Z,14.45
2022-08-14T12:59:37.240Z,13.20
2022-08-14T13:02:47.005Z,13.68
2022-08-14T13:06:00.599Z,13.15
2022-08-14T13:09:07.793Z,13.73
2022-08-14T13:12:34.801Z,15.10
2022-08-14T13:15:40.629Z,14.93
2022-08-14T13:18:46.909Z,13.77
2022-08-14T13:21:58.802Z,13.07
2022-08-14T13:25:10.778Z,13.85
2022-08-14T13:28:30.265Z,13.60
2022-08-14T13:31:39.562Z,14.48
2022-08-14T13:34:46.078Z,13.65
2022-08-14T13:37:53.720Z,13.35
2022-08-14T13:40:57.392Z,12.73
2022-08-14T13:44:01.624Z,11.95
2022-08-14T13:47:07.010Z,12.43
2022-08-14T13:50:15.479Z,13.10
2022-08-14T13:53:26.976Z,12.18
2022-08-14T13:56:40.394Z,12.43
2022-08-14T13:59:46.160Z,13.05
2022-08-14T14:02:53.542Z,13.57
2022-08-14T14:05:58.344Z,13.18
2022-08-14T14:09:04.787Z,11.93
2022-08-14T14:12:36.678Z,13.30
2022-08-14T14:15:33.846Z,14.70
2022-08-14T14:18:56.182Z,14.57
2022-08-14T14:22:00.779Z,14.13
2022-08-14T14:25:09.982Z,15.35
2022-08-14T14:28:16.900Z,13.38
2022-08-14T14:31:31.080Z,13.98
2022-08-14T14:34:37.880Z,13.32
2022-08-14T14:37:42.230Z,13.90
2022-08-14T14:41:00.625Z,13.93
2022-08-14T14:44:06.331Z,12.88
2022-08-14T14:47:15.632Z,10.95
2022-08-14T14:50:22.046Z,11.63
2022-08-14T14:53:31.312Z,18.73
2022-08-14T14:56:51.481Z,16.73
2022-08-14T14:59:55.939Z,11.27
2022-08-14T15:03:00.014Z,12.02
2022-08-14T15:06:03.827Z,10.90
2022-08-14T15:09:10.097Z,10.02
2022-08-14T15:12:55.475Z,10.98
2022-08-14T15:15:47.619Z,9.32
2022-08-14T15:18:54.854Z,10.65
2022-08-14T15:21:59.497Z,9.30
2022-08-14T15:25:02.925Z,8.15
2022-08-14T15:28:11.679Z,8.68
2022-08-14T15:31:16.743Z,8.95
2022-08-14T15:34:43.445Z,9.35
2022-08-14T15:37:44.710Z,8.52
2022-08-14T15:40:56.130Z,9.05
2022-08-14T15:44:01.142Z,8.65
2022-08-14T15:47:09.392Z,9.10
2022-08-14T15:50:13.090Z,8.02
2022-08-14T15:53:16.623Z,8.52
2022-08-14T15:56:42.178Z,8.65
2022-08-14T16:00:03.293Z,8.45
2022-08-14T16:03:16.476Z,8.23
2022-08-14T16:06:21.322Z,8.00
2022-08-14T16:09:26.221Z,8.48
2022-08-14T16:12:41.577Z,9.07
2022-08-14T16:15:53.216Z,9.65
2022-08-14T16:18:59.108Z,9.50
2022-08-14T16:22:57.189Z,8.88
2022-08-14T16:25:34.419Z,11.27
2022-08-14T16:28:39.120Z,12.02
2022-08-14T16:31:45.048Z,12.55
2022-08-14T16:34:54.725Z,13.02
2022-08-14T16:38:19.865Z,12.38
2022-08-14T16:41:28.267Z,12.50
2022-08-14T16:44:40.878Z,11.35
2022-08-14T16:47:47.872Z,10.57
2022-08-14T16:50:54.013Z,9.85
2022-08-14T16:54:00.433Z,10.10
2022-08-14T16:57:22.553Z,9.70
2022-08-14T17:00:32.715Z,10.20
2022-08-14T17:03:53.122Z,11.50
2022-08-14T17:06:58.076Z,11.23
2022-08-14T17:10:09.840Z,10.50
2022-08-14T17:13:19.561Z,9.07
2022-08-14T17:16:24.600Z,8.85
2022-08-14T17:19:40.274Z,9.75
2022-08-14T17:22:50.202Z,9.35
2022-08-14T17:25:53.610Z,9.88
2022-08-14T17:29:06.751Z,9.90
2022-08-14T17:35:57.829Z,9.88
2022-08-14T17:39:06.929Z,9.43
2022-08-14T17:42:13.474Z,9.82
2022-08-14T17:45:18.915Z,10.50
2022-08-14T17:49:14.089Z,10.77
2022-08-14T17:52:50.166Z,12.07
2022-08-14T17:56:48.601Z,12.38
2022-08-14T18:00:12.376Z,12.20
2022-08-14T18:03:50.292Z,10.93
2022-08-14T18:06:58.818Z,10.75
2022-08-14T18:10:52.363Z,10.50
2022-08-14T18:13:51.143Z,12.50
2022-08-14T18:16:57.345Z,13.27
2022-08-14T18:20:01.542Z,11.45
2022-08-14T18:23:25.158Z,10.98
2022-08-14T18:26:37.141Z,10.23
2022-08-14T18:29:54.786Z,9.63
2022-08-14T18:33:14.142Z,7.60
2022-08-14T18:36:47.871Z,7.63
2022-08-14T18:40:03.111Z,7.18
2022-08-14T18:43:09.031Z,7.10
2022-08-14T18:46:59.843Z,7.07
2022-08-14T18:50:00.918Z,8.23
2022-08-14T18:53:10.623Z,7.68
2022-08-14T18:56:18.409Z,7.82
2022-08-14T18:59:35.710Z,7.82
2022-08-14T19:02:43.776Z,6.70
2022-08-14T19:05:59.865Z,8.13
2022-08-14T19:09:04.479Z,6.68
2022-08-14T19:12:08.236Z,7.38
2022-08-14T19:15:25.770Z,7.20
2022-08-14T19:18:38.332Z,6.85
2022-08-14T19:21:44.316Z,7.35
2022-08-14T19:24:50.874Z,7.60
2022-08-14T19:28:31.555Z,7.75
2022-08-14T19:31:42.480Z,6.63
2022-08-14T19:34:59.877Z,7.35
2022-08-14T19:38:03.394Z,7.45
2022-08-14T19:41:16.123Z,7.07
2022-08-14T19:44:20.700Z,7.90
2022-08-14T19:47:41.034Z,7.20
2022-08-14T19:50:46.895Z,7.75
2022-08-14T19:53:56.462Z,7.28
2022-08-14T19:56:59.999Z,7.13
2022-08-14T20:00:28.342Z,6.78
2022-08-14T20:03:59.777Z,7.28
2022-08-14T20:07:09.136Z,7.28
2022-08-14T20:11:05.558Z,8.25
2022-08-14T20:14:01.055Z,8.05
2022-08-14T20:17:06.997Z,9.13
2022-08-14T20:20:31.754Z,9.82
2022-08-14T20:23:38.226Z,10.27
2022-08-14T20:26:46.873Z,10.15
2022-08-14T20:30:29.717Z,9.43
2022-08-14T20:33:47.680Z,10.15
2022-08-14T20:37:01.922Z,10.13
2022-08-14T20:40:24.195Z,9.95
2022-08-14T20:43:47.268Z,10.77
2022-08-14T20:47:01.005Z,11.00
2022-08-14T20:50:16.671Z,12.13
2022-08-14T20:53:34.633Z,11.70
2022-08-14T20:56:44.204Z,10.85
2022-08-14T20:59:57.214Z,12.07
2022-08-14T21:03:32.461Z,11.80
2022-08-14T21:07:22.969Z,12.13
2022-08-14T21:10:35.412Z,13.20
2022-08-14T21:14:20.550Z,12.45
2022-08-14T21:17:04.282Z,12.98
2022-08-14T21:20:25.610Z,13.13
2022-08-14T21:23:32.450Z,12.70
2022-08-14T21:26:51.403Z,13.55
2022-08-14T21:29:59.927Z,15.75
2022-08-14T21:33:05.267Z,15.07
2022-08-14T21:36:21.069Z,15.10
2022-08-14T21:39:27.234Z,14.13
2022-08-14T21:42:31.864Z,14.68
2022-08-14T21:45:39.350Z,16.13
2022-08-14T21:48:44.256Z,16.30
2022-08-14T21:51:59.925Z,15.85
2022-08-14T21:55:12.199Z,15.95
2022-08-14T21:58:53.150Z,15.80
2022-08-14T22:02:00.035Z,17.05
2022-08-14T22:05:05.678Z,16.98
2022-08-14T22:08:14.379Z,16.85
2022-08-14T22:11:19.968Z,16.70
2022-08-14T22:14:25.994Z,15.55
2022-08-14T22:17:32.446Z,15.38
2022-08-14T22:20:37.677Z,15.65
2022-08-14T22:23:42.786Z,13.90
2022-08-14T22:26:46.553Z,13.57
2022-08-14T22:29:54.793Z,13.45
2022-08-14T22:33:01.166Z,13.63
2022-08-14T22:36:26.278Z,13.95
2022-08-14T22:39:40.061Z,15.07
2022-08-14T22:42:57.503Z,15.38
2022-08-14T22:46:14.345Z,14.05
2022-08-14T22:50:31.284Z,14.35
2022-08-14T22:52:49.581Z,14.05
2022-08-14T22:55:54.579Z,15.30
2022-08-14T22:58:59.472Z,14.38
2022-08-14T23:02:06.134Z,14.57
2022-08-14T23:05:15.812Z,13.93
2022-08-14T23:09:00.526Z,15.20
2022-08-14T23:11:46.856Z,14.95
2022-08-14T23:14:50.482Z,15.55
2022-08-14T23:17:55.050Z,14.27
2022-08-14T23:20:59.400Z,15.23
2022-08-14T23:24:03.268Z,15.13
2022-08-14T23:27:09.362Z,14.57
2022-08-14T23:30:34.000Z,15.52
2022-08-14T23:33:42.028Z,15.30
2022-08-14T23:36:57.739Z,15.32
2022-08-14T23:40:02.116Z,14.70
2022-08-14T23:43:09.345Z,15.95
2022-08-14T23:46:15.035Z,15.63
2022-08-14T23:49:20.460Z,15.75
2022-08-14T23:52:51.094Z,15.77
2022-08-14T23:55:54.644Z,14.60
2022-08-14T23:59:03.036Z,15.20
